sensor_id;sensor_type;location;lat;lon;timestamp;temperature;humidity
22956;DHT22;40888;48.148;11.526;2023-07-31T00:02:19;18.20;99.90
22956;DHT22;40888;48.148;11.526;2023-07-31T00:04:44;18.10;99.90
22956;DHT22;40888;48.148;11.526;2023-07-31T00:07:10;18.00;99.90
22956;DHT22;40888;48.148;11.526;2023-07-31T00:09:36;17.90;99.90
22956;DHT22;40888;48.148;11.526;2023-07-31T00:12:02;17.80;99.90
22956;DHT22;40888;48.148;11.526;2023-07-31T00:14:28;17.80;99.90
22956;DHT22;40888;48.148;11.526;2023-07-31T00:16:53;17.70;99.90
22956;DHT22;40888;48.148;11.526;2023-07-31T00:19:19;17.60;99.90
22956;DHT22;40888;48.148;11.526;2023-07-31T00:21:45;17.60;99.90
22956;DHT22;40888;48.148;11.526;2023-07-31T00:24:11;17.70;99.90
22956;DHT22;40888;48.148;11.526;2023-07-31T00:26:36;17.70;99.90
22956;DHT22;40888;48.148;11.526;2023-07-31T00:29:02;17.60;99.90
22956;DHT22;40888;48.148;11.526;2023-07-31T00:31:28;17.50;99.90
22956;DHT22;40888;48.148;11.526;2023-07-31T00:33:53;17.50;99.90
22956;DHT22;40888;48.148;11.526;2023-07-31T00:36:19;17.60;99.90
22956;DHT22;40888;48.148;11.526;2023-07-31T00:38:45;17.50;99.90
22956;DHT22;40888;48.148;11.526;2023-07-31T00:41:11;17.50;99.90
22956;DHT22;40888;48.148;11.526;2023-07-31T00:43:36;17.50;99.90
22956;DHT22;40888;48.148;11.526;2023-07-31T00:46:02;17.50;99.90
22956;DHT22;40888;48.148;11.526;2023-07-31T00:48:28;17.50;99.90
22956;DHT22;40888;48.148;11.526;2023-07-31T00:50:54;17.50;99.90
22956;DHT22;40888;48.148;11.526;2023-07-31T00:53:21;17.50;99.90
22956;DHT22;40888;48.148;11.526;2023-07-31T00:55:47;17.40;99.90
22956;DHT22;40888;48.148;11.526;2023-07-31T00:58:13;17.20;99.90
22956;DHT22;40888;48.148;11.526;2023-07-31T01:00:38;17.40;99.90
22956;DHT22;40888;48.148;11.526;2023-07-31T01:03:04;17.50;99.90
22956;DHT22;40888;48.148;11.526;2023-07-31T01:08:39;17.40;99.90
22956;DHT22;40888;48.148;11.526;2023-07-31T01:11:43;17.40;99.90
22956;DHT22;40888;48.148;11.526;2023-07-31T01:14:12;17.50;99.90
22956;DHT22;40888;48.148;11.526;2023-07-31T01:16:37;17.50;99.90
22956;DHT22;40888;48.148;11.526;2023-07-31T01:19:05;17.50;99.90
22956;DHT22;40888;48.148;11.526;2023-07-31T01:26:34;17.50;99.90
22956;DHT22;40888;48.148;11.526;2023-07-31T01:29:40;17.50;99.90
22956;DHT22;40888;48.148;11.526;2023-07-31T01:32:07;17.50;99.90
22956;DHT22;40888;48.148;11.526;2023-07-31T01:34:35;17.50;99.90
22956;DHT22;40888;48.148;11.526;2023-07-31T01:37:02;17.40;99.90
22956;DHT22;40888;48.148;11.526;2023-07-31T01:39:28;17.50;99.90
22956;DHT22;40888;48.148;11.526;2023-07-31T01:41:54;17.50;99.90
22956;DHT22;40888;48.148;11.526;2023-07-31T01:44:20;17.30;99.90
22956;DHT22;40888;48.148;11.526;2023-07-31T01:46:45;17.30;99.90
22956;DHT22;40888;48.148;11.526;2023-07-31T01:49:11;17.30;99.90
22956;DHT22;40888;48.148;11.526;2023-07-31T01:51:37;17.40;99.90
22956;DHT22;40888;48.148;11.526;2023-07-31T01:54:03;17.40;99.90
22956;DHT22;40888;48.148;11.526;2023-07-31T01:56:29;17.40;99.90
22956;DHT22;40888;48.148;11.526;2023-07-31T01:58:54;17.40;99.90
22956;DHT22;40888;48.148;11.526;2023-07-31T02:01:20;17.30;99.90
22956;DHT22;40888;48.148;11.526;2023-07-31T02:03:46;17.20;99.90
22956;DHT22;40888;48.148;11.526;2023-07-31T02:06:12;17.10;99.90
22956;DHT22;40888;48.148;11.526;2023-07-31T02:08:37;17.20;99.90
22956;DHT22;40888;48.148;11.526;2023-07-31T02:11:03;17.20;99.90
22956;DHT22;40888;48.148;11.526;2023-07-31T02:13:29;17.30;99.90
22956;DHT22;40888;48.148;11.526;2023-07-31T02:15:54;17.30;99.90
22956;DHT22;40888;48.148;11.526;2023-07-31T02:18:20;17.30;99.90
22956;DHT22;40888;48.148;11.526;2023-07-31T02:20:51;17.30;99.90
22956;DHT22;40888;48.148;11.526;2023-07-31T02:23:18;17.40;99.90
22956;DHT22;40888;48.148;11.526;2023-07-31T02:25:44;17.40;99.90
22956;DHT22;40888;48.148;11.526;2023-07-31T02:28:10;17.40;99.90
22956;DHT22;40888;48.148;11.526;2023-07-31T02:30:36;17.40;99.90
22956;DHT22;40888;48.148;11.526;2023-07-31T02:33:02;17.20;99.90
22956;DHT22;40888;48.148;11.526;2023-07-31T02:35:28;17.30;99.90
22956;DHT22;40888;48.148;11.526;2023-07-31T02:37:53;17.30;99.90
22956;DHT22;40888;48.148;11.526;2023-07-31T02:40:19;17.30;99.90
22956;DHT22;40888;48.148;11.526;2023-07-31T02:42:45;17.20;99.90
22956;DHT22;40888;48.148;11.526;2023-07-31T02:45:10;17.20;99.90
22956;DHT22;40888;48.148;11.526;2023-07-31T02:47:36;17.30;99.90
22956;DHT22;40888;48.148;11.526;2023-07-31T02:50:03;17.40;99.90
22956;DHT22;40888;48.148;11.526;2023-07-31T02:52:29;17.40;99.90
22956;DHT22;40888;48.148;11.526;2023-07-31T02:54:54;17.30;99.90
22956;DHT22;40888;48.148;11.526;2023-07-31T02:57:20;17.30;99.90
22956;DHT22;40888;48.148;11.526;2023-07-31T02:59:46;17.20;99.90
22956;DHT22;40888;48.148;11.526;2023-07-31T03:02:12;17.10;99.90
22956;DHT22;40888;48.148;11.526;2023-07-31T03:04:38;17.10;99.90
22956;DHT22;40888;48.148;11.526;2023-07-31T03:07:04;17.20;99.90
22956;DHT22;40888;48.148;11.526;2023-07-31T03:09:30;17.20;99.90
22956;DHT22;40888;48.148;11.526;2023-07-31T03:11:56;17.20;99.90
22956;DHT22;40888;48.148;11.526;2023-07-31T03:14:22;17.20;99.90
22956;DHT22;40888;48.148;11.526;2023-07-31T03:16:48;17.20;99.90
22956;DHT22;40888;48.148;11.526;2023-07-31T03:19:14;17.10;99.90
22956;DHT22;40888;48.148;11.526;2023-07-31T03:21:40;17.20;99.90
22956;DHT22;40888;48.148;11.526;2023-07-31T03:24:06;17.10;99.90
22956;DHT22;40888;48.148;11.526;2023-07-31T03:26:32;17.00;99.90
22956;DHT22;40888;48.148;11.526;2023-07-31T03:28:58;17.00;99.90
22956;DHT22;40888;48.148;11.526;2023-07-31T03:31:24;17.10;99.90
22956;DHT22;40888;48.148;11.526;2023-07-31T03:33:50;17.00;99.90
22956;DHT22;40888;48.148;11.526;2023-07-31T03:36:15;17.00;99.90
22956;DHT22;40888;48.148;11.526;2023-07-31T03:38:41;17.00;99.90
22956;DHT22;40888;48.148;11.526;2023-07-31T03:41:07;17.00;99.90
22956;DHT22;40888;48.148;11.526;2023-07-31T03:43:33;17.00;99.90
22956;DHT22;40888;48.148;11.526;2023-07-31T03:46:01;17.00;99.90
22956;DHT22;40888;48.148;11.526;2023-07-31T03:48:28;16.90;99.90
22956;DHT22;40888;48.148;11.526;2023-07-31T03:50:54;16.80;99.90
22956;DHT22;40888;48.148;11.526;2023-07-31T03:53:20;16.80;99.90
22956;DHT22;40888;48.148;11.526;2023-07-31T03:55:46;16.90;99.90
22956;DHT22;40888;48.148;11.526;2023-07-31T03:58:12;16.90;99.90
22956;DHT22;40888;48.148;11.526;2023-07-31T04:00:40;16.90;99.90
22956;DHT22;40888;48.148;11.526;2023-07-31T04:03:06;16.90;99.90
22956;DHT22;40888;48.148;11.526;2023-07-31T04:05:32;16.90;99.90
22956;DHT22;40888;48.148;11.526;2023-07-31T04:07:58;16.90;99.90
22956;DHT22;40888;48.148;11.526;2023-07-31T04:10:24;16.90;99.90
22956;DHT22;40888;48.148;11.526;2023-07-31T04:12:50;16.90;99.90
22956;DHT22;40888;48.148;11.526;2023-07-31T04:15:15;16.90;99.90
22956;DHT22;40888;48.148;11.526;2023-07-31T04:17:41;16.90;99.90
22956;DHT22;40888;48.148;11.526;2023-07-31T04:20:07;16.90;99.90
22956;DHT22;40888;48.148;11.526;2023-07-31T04:22:33;16.90;99.90
22956;DHT22;40888;48.148;11.526;2023-07-31T04:24:59;16.80;99.90
22956;DHT22;40888;48.148;11.526;2023-07-31T04:27:25;16.70;99.90
22956;DHT22;40888;48.148;11.526;2023-07-31T04:29:50;16.70;99.90
22956;DHT22;40888;48.148;11.526;2023-07-31T04:32:17;16.70;99.90
22956;DHT22;40888;48.148;11.526;2023-07-31T04:34:43;16.70;99.90
22956;DHT22;40888;48.148;11.526;2023-07-31T04:37:09;16.70;99.90
22956;DHT22;40888;48.148;11.526;2023-07-31T04:39:34;16.70;99.90
22956;DHT22;40888;48.148;11.526;2023-07-31T04:42:00;16.60;99.90
22956;DHT22;40888;48.148;11.526;2023-07-31T04:44:26;16.60;99.90
22956;DHT22;40888;48.148;11.526;2023-07-31T04:46:52;16.60;99.90
22956;DHT22;40888;48.148;11.526;2023-07-31T04:49:19;16.60;99.90
22956;DHT22;40888;48.148;11.526;2023-07-31T04:51:45;16.50;99.90
22956;DHT22;40888;48.148;11.526;2023-07-31T04:54:10;16.50;99.90
22956;DHT22;40888;48.148;11.526;2023-07-31T04:56:38;16.50;99.90
22956;DHT22;40888;48.148;11.526;2023-07-31T04:59:04;16.60;99.90
22956;DHT22;40888;48.148;11.526;2023-07-31T05:01:29;16.50;99.90
22956;DHT22;40888;48.148;11.526;2023-07-31T05:03:55;16.50;99.90
22956;DHT22;40888;48.148;11.526;2023-07-31T05:06:21;16.50;99.90
22956;DHT22;40888;48.148;11.526;2023-07-31T05:08:46;16.50;99.90
22956;DHT22;40888;48.148;11.526;2023-07-31T05:11:12;16.60;99.90
22956;DHT22;40888;48.148;11.526;2023-07-31T05:13:38;16.60;99.90
22956;DHT22;40888;48.148;11.526;2023-07-31T05:16:04;16.50;99.90
22956;DHT22;40888;48.148;11.526;2023-07-31T05:18:29;16.60;99.90
22956;DHT22;40888;48.148;11.526;2023-07-31T05:20:55;16.60;99.90
22956;DHT22;40888;48.148;11.526;2023-07-31T05:23:21;16.70;99.90
22956;DHT22;40888;48.148;11.526;2023-07-31T05:25:47;16.70;99.90
22956;DHT22;40888;48.148;11.526;2023-07-31T05:28:12;16.70;99.90
22956;DHT22;40888;48.148;11.526;2023-07-31T05:30:38;16.80;99.90
22956;DHT22;40888;48.148;11.526;2023-07-31T05:33:04;16.90;99.90
22956;DHT22;40888;48.148;11.526;2023-07-31T05:35:30;17.00;99.90
22956;DHT22;40888;48.148;11.526;2023-07-31T05:37:56;17.00;99.90
22956;DHT22;40888;48.148;11.526;2023-07-31T05:40:21;17.10;99.90
22956;DHT22;40888;48.148;11.526;2023-07-31T05:42:47;17.30;99.90
22956;DHT22;40888;48.148;11.526;2023-07-31T05:45:13;17.30;99.90
22956;DHT22;40888;48.148;11.526;2023-07-31T05:47:39;17.40;99.90
22956;DHT22;40888;48.148;11.526;2023-07-31T05:50:05;17.30;99.90
22956;DHT22;40888;48.148;11.526;2023-07-31T05:52:31;17.40;99.90
22956;DHT22;40888;48.148;11.526;2023-07-31T05:54:57;17.50;99.90
22956;DHT22;40888;48.148;11.526;2023-07-31T05:57:22;17.50;99.90
22956;DHT22;40888;48.148;11.526;2023-07-31T05:59:48;17.60;99.90
22956;DHT22;40888;48.148;11.526;2023-07-31T06:02:14;17.60;99.90
22956;DHT22;40888;48.148;11.526;2023-07-31T06:04:40;17.70;99.90
22956;DHT22;40888;48.148;11.526;2023-07-31T06:07:05;17.60;99.90
22956;DHT22;40888;48.148;11.526;2023-07-31T06:09:31;17.70;99.90
22956;DHT22;40888;48.148;11.526;2023-07-31T06:11:57;17.70;99.90
22956;DHT22;40888;48.148;11.526;2023-07-31T06:14:23;17.70;99.90
22956;DHT22;40888;48.148;11.526;2023-07-31T06:16:48;17.80;99.90
22956;DHT22;40888;48.148;11.526;2023-07-31T06:19:14;17.80;99.90
22956;DHT22;40888;48.148;11.526;2023-07-31T06:21:40;17.80;99.90
22956;DHT22;40888;48.148;11.526;2023-07-31T06:24:08;17.80;99.90
22956;DHT22;40888;48.148;11.526;2023-07-31T06:26:34;17.80;99.90
22956;DHT22;40888;48.148;11.526;2023-07-31T06:29:00;17.90;99.90
22956;DHT22;40888;48.148;11.526;2023-07-31T06:31:25;18.00;99.90
22956;DHT22;40888;48.148;11.526;2023-07-31T06:33:52;18.00;99.90
22956;DHT22;40888;48.148;11.526;2023-07-31T06:36:18;18.00;99.90
22956;DHT22;40888;48.148;11.526;2023-07-31T06:38:43;17.90;99.90
22956;DHT22;40888;48.148;11.526;2023-07-31T06:41:09;18.10;99.90
22956;DHT22;40888;48.148;11.526;2023-07-31T06:43:36;18.10;99.90
22956;DHT22;40888;48.148;11.526;2023-07-31T06:46:06;18.00;99.90
22956;DHT22;40888;48.148;11.526;2023-07-31T06:48:33;17.90;99.90
22956;DHT22;40888;48.148;11.526;2023-07-31T06:51:00;18.00;99.90
22956;DHT22;40888;48.148;11.526;2023-07-31T06:53:25;18.00;99.90
22956;DHT22;40888;48.148;11.526;2023-07-31T06:55:51;18.10;99.90
22956;DHT22;40888;48.148;11.526;2023-07-31T06:58:17;18.10;99.90
22956;DHT22;40888;48.148;11.526;2023-07-31T07:00:43;18.10;99.90
22956;DHT22;40888;48.148;11.526;2023-07-31T07:03:09;18.20;99.90
22956;DHT22;40888;48.148;11.526;2023-07-31T07:05:35;18.30;99.90
22956;DHT22;40888;48.148;11.526;2023-07-31T07:08:00;18.20;99.90
22956;DHT22;40888;48.148;11.526;2023-07-31T07:10:29;18.10;99.90
22956;DHT22;40888;48.148;11.526;2023-07-31T07:12:54;18.10;99.90
22956;DHT22;40888;48.148;11.526;2023-07-31T07:15:21;18.10;99.90
22956;DHT22;40888;48.148;11.526;2023-07-31T07:17:46;18.10;99.90
22956;DHT22;40888;48.148;11.526;2023-07-31T07:20:12;18.10;99.90
22956;DHT22;40888;48.148;11.526;2023-07-31T07:22:38;18.10;99.90
22956;DHT22;40888;48.148;11.526;2023-07-31T07:25:04;18.20;99.90
22956;DHT22;40888;48.148;11.526;2023-07-31T07:27:31;18.20;99.90
22956;DHT22;40888;48.148;11.526;2023-07-31T07:29:56;18.20;99.90
22956;DHT22;40888;48.148;11.526;2023-07-31T07:32:22;18.20;99.90
22956;DHT22;40888;48.148;11.526;2023-07-31T07:34:48;18.20;99.90
22956;DHT22;40888;48.148;11.526;2023-07-31T07:37:14;18.20;99.90
22956;DHT22;40888;48.148;11.526;2023-07-31T07:39:41;18.20;99.90
22956;DHT22;40888;48.148;11.526;2023-07-31T07:42:06;18.20;99.90
22956;DHT22;40888;48.148;11.526;2023-07-31T07:44:32;18.40;99.90
22956;DHT22;40888;48.148;11.526;2023-07-31T07:46:58;18.60;99.90
22956;DHT22;40888;48.148;11.526;2023-07-31T07:49:24;18.60;99.90
22956;DHT22;40888;48.148;11.526;2023-07-31T07:51:49;18.70;99.90
22956;DHT22;40888;48.148;11.526;2023-07-31T07:54:15;18.70;99.90
22956;DHT22;40888;48.148;11.526;2023-07-31T07:56:42;18.70;99.90
22956;DHT22;40888;48.148;11.526;2023-07-31T07:59:08;18.70;99.90
22956;DHT22;40888;48.148;11.526;2023-07-31T08:01:34;18.70;99.90
22956;DHT22;40888;48.148;11.526;2023-07-31T08:04:00;18.90;99.90
22956;DHT22;40888;48.148;11.526;2023-07-31T08:06:25;18.90;99.90
22956;DHT22;40888;48.148;11.526;2023-07-31T08:08:51;18.80;99.90
22956;DHT22;40888;48.148;11.526;2023-07-31T08:11:17;19.00;99.90
22956;DHT22;40888;48.148;11.526;2023-07-31T08:13:43;18.90;99.90
22956;DHT22;40888;48.148;11.526;2023-07-31T08:16:08;18.90;99.90
22956;DHT22;40888;48.148;11.526;2023-07-31T08:18:35;19.00;99.90
22956;DHT22;40888;48.148;11.526;2023-07-31T08:21:02;19.00;99.90
22956;DHT22;40888;48.148;11.526;2023-07-31T08:23:28;19.00;99.90
22956;DHT22;40888;48.148;11.526;2023-07-31T08:25:54;19.30;99.90
22956;DHT22;40888;48.148;11.526;2023-07-31T08:28:19;19.30;99.90
22956;DHT22;40888;48.148;11.526;2023-07-31T08:30:45;19.30;99.90
22956;DHT22;40888;48.148;11.526;2023-07-31T08:33:11;19.30;99.90
22956;DHT22;40888;48.148;11.526;2023-07-31T08:35:37;19.40;99.90
22956;DHT22;40888;48.148;11.526;2023-07-31T08:38:04;19.50;99.90
22956;DHT22;40888;48.148;11.526;2023-07-31T08:40:29;19.50;99.90
22956;DHT22;40888;48.148;11.526;2023-07-31T08:42:55;19.50;99.90
22956;DHT22;40888;48.148;11.526;2023-07-31T08:45:28;19.50;99.90
22956;DHT22;40888;48.148;11.526;2023-07-31T08:47:55;19.50;99.90
22956;DHT22;40888;48.148;11.526;2023-07-31T08:50:21;19.40;99.90
22956;DHT22;40888;48.148;11.526;2023-07-31T08:52:50;19.50;99.90
22956;DHT22;40888;48.148;11.526;2023-07-31T08:55:15;19.40;99.90
22956;DHT22;40888;48.148;11.526;2023-07-31T08:57:42;19.30;99.90
22956;DHT22;40888;48.148;11.526;2023-07-31T09:00:09;19.40;99.90
22956;DHT22;40888;48.148;11.526;2023-07-31T09:02:45;19.30;99.90
22956;DHT22;40888;48.148;11.526;2023-07-31T09:05:12;19.20;99.90
22956;DHT22;40888;48.148;11.526;2023-07-31T09:07:38;19.30;99.90
22956;DHT22;40888;48.148;11.526;2023-07-31T09:10:05;19.30;99.90
22956;DHT22;40888;48.148;11.526;2023-07-31T09:12:31;19.40;99.90
22956;DHT22;40888;48.148;11.526;2023-07-31T09:14:58;19.50;99.90
22956;DHT22;40888;48.148;11.526;2023-07-31T09:17:34;19.70;99.90
22956;DHT22;40888;48.148;11.526;2023-07-31T09:20:19;19.80;99.90
22956;DHT22;40888;48.148;11.526;2023-07-31T09:22:45;19.90;98.70
22956;DHT22;40888;48.148;11.526;2023-07-31T09:25:25;20.00;99.90
22956;DHT22;40888;48.148;11.526;2023-07-31T09:27:52;20.00;98.00
22956;DHT22;40888;48.148;11.526;2023-07-31T09:30:18;19.90;97.20
22956;DHT22;40888;48.148;11.526;2023-07-31T09:32:45;20.00;96.70
22956;DHT22;40888;48.148;11.526;2023-07-31T09:35:22;20.00;96.50
22956;DHT22;40888;48.148;11.526;2023-07-31T09:37:52;20.10;98.80
22956;DHT22;40888;48.148;11.526;2023-07-31T09:40:32;20.20;95.50
22956;DHT22;40888;48.148;11.526;2023-07-31T09:43:03;20.20;99.30
22956;DHT22;40888;48.148;11.526;2023-07-31T09:45:30;20.40;95.50
22956;DHT22;40888;48.148;11.526;2023-07-31T09:47:56;20.40;99.30
22956;DHT22;40888;48.148;11.526;2023-07-31T09:50:23;20.50;97.40
22956;DHT22;40888;48.148;11.526;2023-07-31T09:52:50;20.50;96.30
22956;DHT22;40888;48.148;11.526;2023-07-31T09:55:18;20.70;97.50
22956;DHT22;40888;48.148;11.526;2023-07-31T09:57:48;20.70;93.70
22956;DHT22;40888;48.148;11.526;2023-07-31T10:00:16;20.80;96.10
22956;DHT22;40888;48.148;11.526;2023-07-31T10:02:45;20.90;93.30
22956;DHT22;40888;48.148;11.526;2023-07-31T10:05:15;20.80;93.30
22956;DHT22;40888;48.148;11.526;2023-07-31T10:07:49;20.60;92.00
22956;DHT22;40888;48.148;11.526;2023-07-31T10:10:16;20.60;92.60
22956;DHT22;40888;48.148;11.526;2023-07-31T10:12:44;20.60;94.00
22956;DHT22;40888;48.148;11.526;2023-07-31T10:15:11;20.70;91.30
22956;DHT22;40888;48.148;11.526;2023-07-31T10:17:37;20.80;90.50
22956;DHT22;40888;48.148;11.526;2023-07-31T10:20:04;21.00;90.60
22956;DHT22;40888;48.148;11.526;2023-07-31T10:22:31;21.00;84.60
22956;DHT22;40888;48.148;11.526;2023-07-31T10:25:00;20.90;83.40
22956;DHT22;40888;48.148;11.526;2023-07-31T10:27:26;20.90;84.10
22956;DHT22;40888;48.148;11.526;2023-07-31T10:29:55;21.10;83.90
22956;DHT22;40888;48.148;11.526;2023-07-31T10:32:21;21.10;84.60
22956;DHT22;40888;48.148;11.526;2023-07-31T10:34:49;21.20;83.30
22956;DHT22;40888;48.148;11.526;2023-07-31T10:37:30;21.30;77.00
22956;DHT22;40888;48.148;11.526;2023-07-31T10:40:03;21.30;78.50
22956;DHT22;40888;48.148;11.526;2023-07-31T10:42:32;21.30;80.90
22956;DHT22;40888;48.148;11.526;2023-07-31T10:45:07;21.40;80.50
22956;DHT22;40888;48.148;11.526;2023-07-31T10:47:46;21.30;78.80
22956;DHT22;40888;48.148;11.526;2023-07-31T10:50:20;21.20;77.90
22956;DHT22;40888;48.148;11.526;2023-07-31T10:52:56;21.30;75.30
22956;DHT22;40888;48.148;11.526;2023-07-31T10:55:27;21.30;76.70
22956;DHT22;40888;48.148;11.526;2023-07-31T10:57:54;21.30;78.10
22956;DHT22;40888;48.148;11.526;2023-07-31T11:00:28;21.10;75.00
22956;DHT22;40888;48.148;11.526;2023-07-31T11:03:04;21.20;74.80
22956;DHT22;40888;48.148;11.526;2023-07-31T11:08:29;21.30;75.30
22956;DHT22;40888;48.148;11.526;2023-07-31T11:15:55;21.50;77.20
22956;DHT22;40888;48.148;11.526;2023-07-31T11:18:20;21.30;75.90
22956;DHT22;40888;48.148;11.526;2023-07-31T11:20:46;21.40;78.50
22956;DHT22;40888;48.148;11.526;2023-07-31T11:23:13;21.60;78.80
22956;DHT22;40888;48.148;11.526;2023-07-31T11:25:40;21.70;71.50
22956;DHT22;40888;48.148;11.526;2023-07-31T11:28:09;21.70;71.20
22956;DHT22;40888;48.148;11.526;2023-07-31T11:30:36;21.70;71.90
22956;DHT22;40888;48.148;11.526;2023-07-31T11:33:03;21.70;72.30
22956;DHT22;40888;48.148;11.526;2023-07-31T11:35:32;21.60;69.40
22956;DHT22;40888;48.148;11.526;2023-07-31T11:37:59;21.50;69.70
22956;DHT22;40888;48.148;11.526;2023-07-31T11:40:25;21.60;69.80
22956;DHT22;40888;48.148;11.526;2023-07-31T11:42:58;21.70;71.20
22956;DHT22;40888;48.148;11.526;2023-07-31T11:45:27;21.70;70.60
22956;DHT22;40888;48.148;11.526;2023-07-31T11:47:57;21.90;74.00
22956;DHT22;40888;48.148;11.526;2023-07-31T11:50:23;22.20;69.00
22956;DHT22;40888;48.148;11.526;2023-07-31T11:52:58;22.20;67.80
22956;DHT22;40888;48.148;11.526;2023-07-31T11:55:25;22.40;67.50
22956;DHT22;40888;48.148;11.526;2023-07-31T11:57:52;22.40;67.70
22956;DHT22;40888;48.148;11.526;2023-07-31T12:00:19;22.80;68.50
22956;DHT22;40888;48.148;11.526;2023-07-31T12:02:46;23.00;65.20
22956;DHT22;40888;48.148;11.526;2023-07-31T12:05:14;22.80;62.50
22956;DHT22;40888;48.148;11.526;2023-07-31T12:07:51;22.80;63.80
22956;DHT22;40888;48.148;11.526;2023-07-31T12:10:28;23.00;64.10
22956;DHT22;40888;48.148;11.526;2023-07-31T12:12:58;23.10;62.60
22956;DHT22;40888;48.148;11.526;2023-07-31T12:15:42;22.80;59.00
22956;DHT22;40888;48.148;11.526;2023-07-31T12:18:12;22.90;60.10
22956;DHT22;40888;48.148;11.526;2023-07-31T12:20:48;23.30;60.20
22956;DHT22;40888;48.148;11.526;2023-07-31T12:23:19;23.30;61.00
22956;DHT22;40888;48.148;11.526;2023-07-31T12:26:03;23.30;62.00
22956;DHT22;40888;48.148;11.526;2023-07-31T12:28:29;23.40;66.10
22956;DHT22;40888;48.148;11.526;2023-07-31T12:30:59;23.50;60.60
22956;DHT22;40888;48.148;11.526;2023-07-31T12:33:31;23.50;59.80
22956;DHT22;40888;48.148;11.526;2023-07-31T12:36:00;23.50;58.80
22956;DHT22;40888;48.148;11.526;2023-07-31T12:38:26;23.40;56.80
22956;DHT22;40888;48.148;11.526;2023-07-31T12:40:51;23.10;59.20
22956;DHT22;40888;48.148;11.526;2023-07-31T12:43:17;23.40;60.40
22956;DHT22;40888;48.148;11.526;2023-07-31T12:45:43;23.70;59.60
22956;DHT22;40888;48.148;11.526;2023-07-31T12:48:09;23.80;57.70
22956;DHT22;40888;48.148;11.526;2023-07-31T12:50:35;24.00;57.60
22956;DHT22;40888;48.148;11.526;2023-07-31T12:53:02;24.20;58.60
22956;DHT22;40888;48.148;11.526;2023-07-31T12:55:29;24.30;57.90
22956;DHT22;40888;48.148;11.526;2023-07-31T12:57:55;24.20;57.90
22956;DHT22;40888;48.148;11.526;2023-07-31T13:00:22;24.30;59.40
22956;DHT22;40888;48.148;11.526;2023-07-31T13:02:48;24.20;60.30
22956;DHT22;40888;48.148;11.526;2023-07-31T13:05:14;24.00;58.00
22956;DHT22;40888;48.148;11.526;2023-07-31T13:07:40;23.70;58.30
22956;DHT22;40888;48.148;11.526;2023-07-31T13:10:07;23.90;58.50
22956;DHT22;40888;48.148;11.526;2023-07-31T13:12:33;24.00;58.90
22956;DHT22;40888;48.148;11.526;2023-07-31T13:14:59;24.30;57.80
22956;DHT22;40888;48.148;11.526;2023-07-31T13:17:24;24.30;55.80
22956;DHT22;40888;48.148;11.526;2023-07-31T13:19:50;24.00;57.50
22956;DHT22;40888;48.148;11.526;2023-07-31T13:22:16;24.00;58.80
22956;DHT22;40888;48.148;11.526;2023-07-31T13:24:42;24.30;62.40
22956;DHT22;40888;48.148;11.526;2023-07-31T13:27:07;24.30;54.80
22956;DHT22;40888;48.148;11.526;2023-07-31T13:29:33;24.20;55.50
22956;DHT22;40888;48.148;11.526;2023-07-31T13:31:59;24.40;55.20
22956;DHT22;40888;48.148;11.526;2023-07-31T13:34:24;24.40;53.50
22956;DHT22;40888;48.148;11.526;2023-07-31T13:36:50;24.40;54.40
22956;DHT22;40888;48.148;11.526;2023-07-31T13:39:16;24.50;54.80
22956;DHT22;40888;48.148;11.526;2023-07-31T13:41:41;24.50;54.20
22956;DHT22;40888;48.148;11.526;2023-07-31T13:44:07;24.40;54.80
22956;DHT22;40888;48.148;11.526;2023-07-31T13:46:33;24.40;55.10
22956;DHT22;40888;48.148;11.526;2023-07-31T13:48:59;24.40;54.20
22956;DHT22;40888;48.148;11.526;2023-07-31T13:51:25;24.60;54.90
22956;DHT22;40888;48.148;11.526;2023-07-31T13:53:52;25.10;55.10
22956;DHT22;40888;48.148;11.526;2023-07-31T13:56:18;25.20;55.00
22956;DHT22;40888;48.148;11.526;2023-07-31T13:58:44;25.20;54.60
22956;DHT22;40888;48.148;11.526;2023-07-31T14:01:10;25.00;55.60
22956;DHT22;40888;48.148;11.526;2023-07-31T14:03:35;24.90;55.80
22956;DHT22;40888;48.148;11.526;2023-07-31T14:06:01;25.00;54.50
22956;DHT22;40888;48.148;11.526;2023-07-31T14:08:27;24.60;53.20
22956;DHT22;40888;48.148;11.526;2023-07-31T14:10:53;24.40;51.50
22956;DHT22;40888;48.148;11.526;2023-07-31T14:13:19;24.40;52.00
22956;DHT22;40888;48.148;11.526;2023-07-31T14:15:44;24.10;53.00
22956;DHT22;40888;48.148;11.526;2023-07-31T14:18:10;24.30;54.40
22956;DHT22;40888;48.148;11.526;2023-07-31T14:20:36;24.40;54.00
22956;DHT22;40888;48.148;11.526;2023-07-31T14:23:06;24.20;54.60
22956;DHT22;40888;48.148;11.526;2023-07-31T14:25:31;24.00;55.50
22956;DHT22;40888;48.148;11.526;2023-07-31T14:27:57;24.10;56.20
22956;DHT22;40888;48.148;11.526;2023-07-31T14:30:23;24.00;57.50
22956;DHT22;40888;48.148;11.526;2023-07-31T14:32:49;24.00;56.50
22956;DHT22;40888;48.148;11.526;2023-07-31T14:35:14;24.10;55.30
22956;DHT22;40888;48.148;11.526;2023-07-31T14:37:44;24.20;54.80
22956;DHT22;40888;48.148;11.526;2023-07-31T14:40:12;24.20;54.10
22956;DHT22;40888;48.148;11.526;2023-07-31T14:42:38;24.30;54.60
22956;DHT22;40888;48.148;11.526;2023-07-31T14:45:07;24.30;55.20
22956;DHT22;40888;48.148;11.526;2023-07-31T14:47:33;24.40;56.20
22956;DHT22;40888;48.148;11.526;2023-07-31T14:49:59;24.30;56.10
22956;DHT22;40888;48.148;11.526;2023-07-31T14:52:26;24.20;56.20
22956;DHT22;40888;48.148;11.526;2023-07-31T14:54:52;24.20;55.40
22956;DHT22;40888;48.148;11.526;2023-07-31T14:57:18;23.90;56.30
22956;DHT22;40888;48.148;11.526;2023-07-31T14:59:45;23.80;56.80
22956;DHT22;40888;48.148;11.526;2023-07-31T15:02:11;23.80;56.10
22956;DHT22;40888;48.148;11.526;2023-07-31T15:04:37;23.80;55.90
22956;DHT22;40888;48.148;11.526;2023-07-31T15:07:03;23.80;56.20
22956;DHT22;40888;48.148;11.526;2023-07-31T15:09:29;23.70;56.50
22956;DHT22;40888;48.148;11.526;2023-07-31T15:11:56;23.70;57.00
22956;DHT22;40888;48.148;11.526;2023-07-31T15:14:22;23.60;57.00
22956;DHT22;40888;48.148;11.526;2023-07-31T15:16:48;23.50;57.50
22956;DHT22;40888;48.148;11.526;2023-07-31T15:19:14;23.40;58.20
22956;DHT22;40888;48.148;11.526;2023-07-31T15:21:40;23.40;59.50
22956;DHT22;40888;48.148;11.526;2023-07-31T15:24:06;23.50;59.30
22956;DHT22;40888;48.148;11.526;2023-07-31T15:26:32;23.50;60.20
22956;DHT22;40888;48.148;11.526;2023-07-31T15:29:07;23.50;62.40
22956;DHT22;40888;48.148;11.526;2023-07-31T15:31:41;23.40;62.10